Time;durP1;ratioP1;P1;durP2;ratioP2;P2;SDS_P1;SDS_P2;PMS_P1;PMS_P2;Temp;Humidity;BMP_temperature;BMP_pressure;BME280_temperature;BME280_humidity;BME280_pressure;Samples;Min_cycle;Max_cycle;Signal;HPM_P1;HPM_P2
2021/07/14 00:02:14;;;;;;;1.33;0.75;;;;;;;;;;5042946;28;20033;-82
2021/07/14 00:04:40;;;;;;;0.82;0.80;;;;;;;;;;4977342;28;1165210;-81
2021/07/14 00:07:06;;;;;;;1.00;1.00;;;;;;;;;;5022119;28;20108;-81
2021/07/14 00:09:33;;;;;;;1.15;1.00;;;;;;;;;;5004423;28;20097;-81
2021/07/14 00:12:05;;;;;;;1.08;0.98;;;;;;;;;;5008928;28;20029;-81
2021/07/14 00:22:29;;;;;;;1.58;1.48;;;;;;;;;;5024350;28;20180;-82
2021/07/14 00:24:55;;;;;;;0.75;0.75;;;;;;;;;;5024350;28;20052;-81
2021/07/14 00:27:23;;;;;;;0.80;0.80;;;;;;;;;;5025256;28;20034;-82
2021/07/14 00:29:56;;;;;;;0.88;0.88;;;;;;;;;;5030688;28;20010;-81
2021/07/14 00:32:24;;;;;;;0.80;0.80;;;;;;;;;;5018792;28;20029;-82
2021/07/14 00:34:50;;;;;;;0.70;0.70;;;;;;;;;;5027444;28;20394;-81
2021/07/14 00:37:18;;;;;;;1.50;1.17;;;;;;;;;;5027604;28;20022;-81
2021/07/14 00:39:44;;;;;;;0.70;0.70;;;;;;;;;;5028689;28;20024;-81
2021/07/14 00:42:11;;;;;;;0.80;0.80;;;;;;;;;;5042302;28;20030;-80
2021/07/14 00:44:37;;;;;;;0.82;0.82;;;;;;;;;;5031964;28;20036;-81
2021/07/14 00:47:05;;;;;;;1.02;1.02;;;;;;;;;;5021464;28;20033;-82
2021/07/14 00:49:31;;;;;;;0.80;0.80;;;;;;;;;;5045827;28;20026;-82
2021/07/14 00:51:57;;;;;;;0.77;0.77;;;;;;;;;;5027219;28;20545;-80
2021/07/14 00:54:23;;;;;;;1.23;0.95;;;;;;;;;;5043763;28;20029;-82
2021/07/14 00:56:49;;;;;;;1.92;1.20;;;;;;;;;;5027597;28;20159;-82
2021/07/14 00:59:15;;;;;;;0.85;0.85;;;;;;;;;;5025545;28;20052;-83
2021/07/14 01:01:44;;;;;;;1.40;1.30;;;;;;;;;;5026889;28;20037;-82
2021/07/14 01:04:14;;;;;;;1.17;1.05;;;;;;;;;;5007167;28;20080;-82
2021/07/14 01:07:02;;;;;;;1.75;1.65;;;;;;;;;;5003577;28;20033;-82
2021/07/14 01:09:52;;;;;;;1.30;1.20;;;;;;;;;;5021316;28;20061;-82
2021/07/14 01:12:25;;;;;;;1.50;1.15;;;;;;;;;;5022484;28;20033;-82
2021/07/14 01:14:56;;;;;;;1.00;1.00;;;;;;;;;;5014044;28;20032;-83
2021/07/14 01:17:24;;;;;;;1.55;1.38;;;;;;;;;;5028700;28;20021;-82
2021/07/14 01:20:04;;;;;;;1.40;1.30;;;;;;;;;;5046155;28;20022;-82
2021/07/14 01:22:43;;;;;;;2.28;1.40;;;;;;;;;;5025096;28;20040;-82
2021/07/14 01:25:18;;;;;;;1.63;1.52;;;;;;;;;;5024589;28;20043;-82
2021/07/14 01:27:45;;;;;;;1.90;1.80;;;;;;;;;;5026579;28;20009;-81
2021/07/14 01:30:11;;;;;;;1.50;1.40;;;;;;;;;;5042520;28;20036;-82
2021/07/14 01:32:39;;;;;;;1.38;1.20;;;;;;;;;;5026048;28;20047;-81
2021/07/14 01:35:25;;;;;;;1.38;0.90;;;;;;;;;;5012735;28;20195;-82
2021/07/14 01:37:52;;;;;;;1.38;1.02;;;;;;;;;;5028003;28;20058;-82
2021/07/14 01:40:19;;;;;;;0.90;0.80;;;;;;;;;;5027513;28;20034;-83
2021/07/14 01:42:47;;;;;;;0.90;0.90;;;;;;;;;;5029440;28;20059;-80
2021/07/14 01:45:14;;;;;;;0.90;0.90;;;;;;;;;;5019098;28;20098;-82
2021/07/14 01:47:41;;;;;;;2.38;1.10;;;;;;;;;;5042062;28;20029;-81
2021/07/14 01:50:07;;;;;;;2.80;1.58;;;;;;;;;;5046191;28;20039;-82
2021/07/14 01:52:34;;;;;;;1.92;1.70;;;;;;;;;;5047196;28;20080;-82
2021/07/14 01:55:03;;;;;;;2.60;1.40;;;;;;;;;;5028455;28;20025;-82
2021/07/14 01:57:29;;;;;;;1.45;1.35;;;;;;;;;;5046237;28;20108;-82
2021/07/14 01:59:56;;;;;;;1.42;1.27;;;;;;;;;;5042580;28;20029;-82
2021/07/14 02:02:26;;;;;;;1.52;1.00;;;;;;;;;;5044948;28;20466;-82
2021/07/14 02:04:53;;;;;;;0.93;0.93;;;;;;;;;;5041715;28;20037;-82
2021/07/14 02:07:26;;;;;;;0.93;0.93;;;;;;;;;;5007514;28;20054;-82
2021/07/14 02:09:53;;;;;;;2.72;1.17;;;;;;;;;;5025419;28;20129;-82
2021/07/14 02:12:20;;;;;;;1.30;1.17;;;;;;;;;;5025049;28;20049;-82
2021/07/14 02:14:48;;;;;;;0.90;0.90;;;;;;;;;;5033638;28;20029;-82
2021/07/14 02:17:16;;;;;;;1.15;1.10;;;;;;;;;;5032832;28;20102;-82
2021/07/14 02:19:45;;;;;;;1.30;1.20;;;;;;;;;;5007081;28;20022;-81
2021/07/14 02:22:11;;;;;;;1.92;1.75;;;;;;;;;;5006194;28;20029;-81
2021/07/14 02:24:40;;;;;;;1.67;1.52;;;;;;;;;;5023998;28;20034;-83
2021/07/14 02:27:07;;;;;;;1.48;1.38;;;;;;;;;;5023506;28;20051;-83
2021/07/14 02:29:34;;;;;;;1.85;1.17;;;;;;;;;;5044534;28;20106;-82
2021/07/14 02:32:00;;;;;;;1.52;1.30;;;;;;;;;;5027275;28;20026;-80
2021/07/14 02:34:26;;;;;;;1.33;1.23;;;;;;;;;;5026575;28;20028;-81
2021/07/14 02:36:53;;;;;;;1.20;1.20;;;;;;;;;;5032036;28;20026;-82
2021/07/14 02:39:19;;;;;;;1.23;0.98;;;;;;;;;;5007425;28;20026;-82
2021/07/14 02:41:51;;;;;;;0.98;0.98;;;;;;;;;;5008288;28;20026;-82
2021/07/14 02:44:17;;;;;;;;;;;;;;;;;;5027934;28;20025;-80
2021/07/14 02:46:45;;;;;;;0.93;0.93;;;;;;;;;;5034526;28;19912;-81
2021/07/14 02:49:12;;;;;;;1.20;0.93;;;;;;;;;;5045121;28;20060;-81
2021/07/14 02:51:39;;;;;;;0.93;0.93;;;;;;;;;;5043943;28;20029;-81
2021/07/14 02:54:20;;;;;;;0.90;0.90;;;;;;;;;;5042569;28;20072;-81
2021/07/14 02:56:48;;;;;;;0.70;0.70;;;;;;;;;;5036123;28;20014;-81
2021/07/14 02:59:14;;;;;;;0.70;0.70;;;;;;;;;;5023758;28;20026;-81
2021/07/14 03:01:41;;;;;;;0.60;0.60;;;;;;;;;;5027569;28;20137;-81
2021/07/14 03:04:09;;;;;;;0.95;0.90;;;;;;;;;;5029241;28;20061;-80
2021/07/14 03:06:35;;;;;;;1.05;1.05;;;;;;;;;;5029309;28;20025;-81
2021/07/14 03:09:05;;;;;;;0.80;0.80;;;;;;;;;;5027981;28;20060;-80
2021/07/14 03:11:34;;;;;;;1.42;1.08;;;;;;;;;;5028530;28;20025;-81
2021/07/14 03:14:00;;;;;;;1.58;0.95;;;;;;;;;;5029753;28;20009;-81
2021/07/14 03:16:26;;;;;;;0.98;0.98;;;;;;;;;;5039615;28;20030;-80
2021/07/14 03:18:54;;;;;;;0.65;0.65;;;;;;;;;;5041324;28;20044;-80
2021/07/14 03:21:20;;;;;;;1.30;1.20;;;;;;;;;;5042417;28;20045;-81
2021/07/14 03:23:47;;;;;;;1.02;1.02;;;;;;;;;;5041133;28;20044;-81
2021/07/14 03:26:15;;;;;;;0.90;0.90;;;;;;;;;;5023225;28;20075;-81
2021/07/14 03:28:41;;;;;;;0.70;0.70;;;;;;;;;;5028106;28;20038;-81
2021/07/14 03:31:09;;;;;;;1.20;1.13;;;;;;;;;;5023253;28;20030;-81
2021/07/14 03:33:35;;;;;;;0.90;0.90;;;;;;;;;;5004374;28;20032;-82
2021/07/14 03:36:02;;;;;;;1.00;0.80;;;;;;;;;;5022325;28;20406;-81
2021/07/14 03:38:28;;;;;;;0.63;0.63;;;;;;;;;;5013367;28;20114;-81
2021/07/14 03:40:55;;;;;;;0.70;0.70;;;;;;;;;;5042629;28;20049;-81
2021/07/14 03:43:23;;;;;;;0.85;0.60;;;;;;;;;;5042786;28;20080;-81
2021/07/14 03:45:51;;;;;;;0.70;0.70;;;;;;;;;;5024220;28;20056;-80
2021/07/14 03:48:17;;;;;;;0.63;0.63;;;;;;;;;;5049742;28;20061;-80
2021/07/14 03:50:45;;;;;;;0.70;0.70;;;;;;;;;;5048439;28;20064;-81
2021/07/14 03:53:12;;;;;;;0.50;0.50;;;;;;;;;;5047834;28;20057;-81
2021/07/14 03:55:38;;;;;;;0.70;0.70;;;;;;;;;;5047214;28;20021;-81
2021/07/14 03:58:04;;;;;;;0.70;0.70;;;;;;;;;;5029682;28;20009;-80
2021/07/14 04:00:30;;;;;;;1.08;1.08;;;;;;;;;;5033971;28;20048;-80
2021/07/14 04:02:57;;;;;;;1.17;1.00;;;;;;;;;;5053436;28;20013;-80
2021/07/14 04:05:23;;;;;;;0.90;0.90;;;;;;;;;;5045663;23;20072;-81
2021/07/14 04:07:53;;;;;;;0.85;0.85;;;;;;;;;;5037374;28;20086;-81
2021/07/14 04:10:19;;;;;;;0.98;0.98;;;;;;;;;;5037636;28;20113;-79
2021/07/14 04:12:47;;;;;;;1.77;1.35;;;;;;;;;;5043259;28;20139;-78
2021/07/14 04:15:13;;;;;;;1.27;1.05;;;;;;;;;;5044144;28;20081;-76
2021/07/14 04:17:39;;;;;;;1.08;0.98;;;;;;;;;;5037287;28;20026;-76
2021/07/14 04:20:06;;;;;;;1.40;1.30;;;;;;;;;;5037083;28;20077;-78
2021/07/14 04:22:32;;;;;;;1.30;1.20;;;;;;;;;;5021135;28;20022;-79
2021/07/14 04:24:59;;;;;;;1.38;1.20;;;;;;;;;;5021180;28;20089;-79
2021/07/14 04:27:29;;;;;;;1.70;1.13;;;;;;;;;;5022548;28;20101;-80
2021/07/14 04:29:55;;;;;;;1.98;1.10;;;;;;;;;;5020793;28;20037;-80
2021/07/14 04:32:21;;;;;;;1.13;1.02;;;;;;;;;;5021413;28;20117;-78
2021/07/14 04:34:47;;;;;;;1.10;1.10;;;;;;;;;;5015349;28;20391;-77
2021/07/14 04:37:16;;;;;;;1.90;1.05;;;;;;;;;;5016387;28;20033;-78
2021/07/14 04:39:42;;;;;;;2.65;1.35;;;;;;;;;;5016522;28;20022;-78
2021/07/14 04:42:08;;;;;;;1.95;1.20;;;;;;;;;;5015204;28;20489;-78
2021/07/14 04:44:37;;;;;;;8.75;4.18;;;;;;;;;;5016662;28;20038;-77
2021/07/14 04:47:04;;;;;;;2.85;1.98;;;;;;;;;;5023904;28;20032;-77
2021/07/14 04:49:30;;;;;;;5.35;1.45;;;;;;;;;;5028160;28;20466;-77
2021/07/14 04:51:56;;;;;;;2.13;1.45;;;;;;;;;;5017410;28;20037;-78
2021/07/14 04:54:22;;;;;;;1.83;1.08;;;;;;;;;;5016437;28;20022;-78
2021/07/14 04:56:50;;;;;;;1.10;0.95;;;;;;;;;;5014307;28;20422;-78
2021/07/14 04:59:17;;;;;;;0.73;0.73;;;;;;;;;;5016423;28;20022;-76
2021/07/14 05:01:43;;;;;;;1.83;1.05;;;;;;;;;;5016997;28;20037;-78
2021/07/14 05:04:09;;;;;;;2.15;0.80;;;;;;;;;;5017243;28;20053;-78
2021/07/14 05:06:35;;;;;;;1.25;1.00;;;;;;;;;;5017957;28;20030;-79
2021/07/14 05:09:01;;;;;;;1.25;1.10;;;;;;;;;;5017936;28;20052;-77
2021/07/14 05:11:27;;;;;;;1.38;1.17;;;;;;;;;;5018814;28;20109;-77
2021/07/14 05:13:54;;;;;;;1.25;1.10;;;;;;;;;;5019249;28;20030;-77
2021/07/14 05:16:20;;;;;;;2.25;0.85;;;;;;;;;;5022286;28;20083;-76
2021/07/14 05:18:46;;;;;;;0.93;0.90;;;;;;;;;;5033662;28;20033;-75
2021/07/14 05:21:12;;;;;;;2.85;1.00;;;;;;;;;;5043741;28;20041;-78
2021/07/14 05:23:38;;;;;;;1.83;0.90;;;;;;;;;;5035235;28;20033;-76
2021/07/14 05:26:04;;;;;;;3.90;1.00;;;;;;;;;;5025829;28;20029;-77
2021/07/14 05:28:30;;;;;;;1.45;0.70;;;;;;;;;;5026511;28;20030;-77
2021/07/14 05:30:59;;;;;;;2.75;0.80;;;;;;;;;;5028566;28;20038;-79
2021/07/14 05:33:26;;;;;;;5.32;1.00;;;;;;;;;;5032750;28;20030;-77
2021/07/14 05:35:54;;;;;;;2.15;0.80;;;;;;;;;;5027181;28;20049;-79
2021/07/14 05:38:21;;;;;;;2.38;0.90;;;;;;;;;;5030693;28;20022;-77
2021/07/14 05:40:50;;;;;;;0.70;0.70;;;;;;;;;;5024717;28;20022;-77
2021/07/14 05:43:17;;;;;;;0.60;0.60;;;;;;;;;;5016685;28;20090;-75
2021/07/14 05:45:43;;;;;;;0.88;0.88;;;;;;;;;;5014337;28;20034;-75
2021/07/14 05:48:09;;;;;;;0.88;0.80;;;;;;;;;;5026189;28;20026;-77
2021/07/14 05:50:36;;;;;;;1.13;0.70;;;;;;;;;;5037168;28;20033;-78
2021/07/14 05:53:02;;;;;;;4.68;1.10;;;;;;;;;;5056302;28;20009;-81
2021/07/14 05:55:28;;;;;;;1.52;0.85;;;;;;;;;;5030402;28;20033;-80
2021/07/14 05:57:55;;;;;;;0.80;0.52;;;;;;;;;;5021307;28;20041;-78
2021/07/14 06:00:21;;;;;;;3.47;0.90;;;;;;;;;;5017848;28;20486;-78
2021/07/14 06:02:47;;;;;;;0.73;0.73;;;;;;;;;;5017277;28;20026;-78
2021/07/14 06:05:13;;;;;;;4.10;0.68;;;;;;;;;;5019086;28;20038;-79
2021/07/14 06:07:40;;;;;;;3.45;0.80;;;;;;;;;;5018850;28;20025;-77
2021/07/14 06:10:07;;;;;;;1.00;1.00;;;;;;;;;;5016646;28;20037;-77
2021/07/14 06:12:36;;;;;;;2.95;1.20;;;;;;;;;;5015041;28;20084;-77
2021/07/14 06:15:02;;;;;;;1.13;1.02;;;;;;;;;;5015080;28;20026;-77
2021/07/14 06:17:28;;;;;;;2.63;1.30;;;;;;;;;;5026533;28;20080;-77
2021/07/14 06:19:54;;;;;;;2.80;1.45;;;;;;;;;;5018856;28;20018;-77
2021/07/14 06:22:20;;;;;;;3.10;1.25;;;;;;;;;;5019155;28;20061;-77
2021/07/14 06:24:46;;;;;;;1.40;1.10;;;;;;;;;;5017343;28;20030;-77
2021/07/14 06:27:13;;;;;;;1.40;1.20;;;;;;;;;;5017913;28;20030;-79
2021/07/14 06:29:39;;;;;;;4.38;1.38;;;;;;;;;;5018104;28;20156;-78
2021/07/14 06:32:05;;;;;;;2.55;1.38;;;;;;;;;;5018327;28;20042;-77
2021/07/14 06:34:31;;;;;;;1.80;1.25;;;;;;;;;;5019787;28;20030;-79
2021/07/14 06:36:57;;;;;;;1.48;1.10;;;;;;;;;;5018988;28;20030;-79
2021/07/14 06:39:23;;;;;;;1.92;1.20;;;;;;;;;;5019769;28;20037;-80
2021/07/14 06:41:50;;;;;;;2.90;1.52;;;;;;;;;;5016651;28;20480;-77
2021/07/14 06:44:19;;;;;;;4.57;1.40;;;;;;;;;;5019029;28;20034;-78
2021/07/14 06:46:45;;;;;;;1.25;1.15;;;;;;;;;;5030224;28;20468;-77
2021/07/14 06:49:11;;;;;;;3.05;1.50;;;;;;;;;;5030467;28;20541;-79
2021/07/14 06:51:37;;;;;;;1.23;1.05;;;;;;;;;;5041813;28;20107;-80
2021/07/14 06:54:06;;;;;;;2.85;1.45;;;;;;;;;;5040725;28;20189;-80
2021/07/14 06:56:32;;;;;;;1.73;1.40;;;;;;;;;;5034375;28;20022;-79
2021/07/14 06:58:58;;;;;;;1.77;1.20;;;;;;;;;;5020845;28;20026;-79
2021/07/14 07:01:25;;;;;;;1.77;1.20;;;;;;;;;;5022281;28;20029;-79
2021/07/14 07:03:51;;;;;;;3.40;1.38;;;;;;;;;;5022758;28;20057;-79
2021/07/14 07:06:17;;;;;;;1.90;1.30;;;;;;;;;;5021307;28;20360;-79
2021/07/14 07:08:43;;;;;;;3.53;1.67;;;;;;;;;;5023727;28;20133;-80
2021/07/14 07:11:10;;;;;;;2.05;1.20;;;;;;;;;;5025772;28;20045;-80
2021/07/14 07:13:36;;;;;;;2.75;1.70;;;;;;;;;;5021964;28;20118;-80
2021/07/14 07:16:06;;;;;;;1.15;1.05;;;;;;;;;;5019364;28;20034;-83
2021/07/14 07:18:32;;;;;;;2.30;1.67;;;;;;;;;;5032427;28;20040;-84
2021/07/14 07:20:58;;;;;;;1.55;1.13;;;;;;;;;;5019421;28;20029;-82
2021/07/14 07:23:25;;;;;;;4.95;1.42;;;;;;;;;;5021198;28;20065;-82
2021/07/14 07:25:55;;;;;;;2.15;1.55;;;;;;;;;;5022803;28;20036;-83
2021/07/14 07:28:26;;;;;;;2.38;1.48;;;;;;;;;;5028878;28;20434;-82
2021/07/14 07:30:52;;;;;;;3.65;1.50;;;;;;;;;;5027718;28;20022;-81
2021/07/14 07:33:18;;;;;;;2.70;1.30;;;;;;;;;;5028427;28;20080;-80
2021/07/14 07:35:44;;;;;;;1.83;1.67;;;;;;;;;;5008088;28;20026;-80
2021/07/14 07:38:11;;;;;;;2.45;1.67;;;;;;;;;;5002916;28;20038;-81
2021/07/14 07:40:37;;;;;;;2.58;1.13;;;;;;;;;;5004194;28;20022;-80
2021/07/14 07:43:03;;;;;;;1.90;1.40;;;;;;;;;;5007465;28;20026;-83
2021/07/14 07:45:30;;;;;;;1.48;1.38;;;;;;;;;;5015767;28;20049;-80
2021/07/14 07:47:56;;;;;;;1.75;1.02;;;;;;;;;;5031871;28;20120;-79
2021/07/14 07:50:22;;;;;;;2.05;1.10;;;;;;;;;;5021754;28;20022;-79
2021/07/14 07:52:48;;;;;;;1.10;1.05;;;;;;;;;;5019768;28;20029;-79
2021/07/14 07:55:14;;;;;;;4.28;1.60;;;;;;;;;;5019792;28;20022;-79
2021/07/14 07:57:41;;;;;;;1.70;1.08;;;;;;;;;;5017170;28;20032;-79
2021/07/14 08:00:09;;;;;;;1.55;0.90;;;;;;;;;;5021011;28;20094;-79
2021/07/14 08:02:36;;;;;;;1.23;1.13;;;;;;;;;;5018588;28;20387;-80
2021/07/14 08:05:03;;;;;;;0.90;0.90;;;;;;;;;;5017178;28;20034;-80
2021/07/14 08:07:29;;;;;;;1.05;1.02;;;;;;;;;;5018524;28;20050;-78
2021/07/14 08:09:55;;;;;;;4.63;1.20;;;;;;;;;;5016066;28;20437;-79
2021/07/14 08:12:22;;;;;;;1.67;1.10;;;;;;;;;;5023680;28;20052;-79
2021/07/14 08:14:48;;;;;;;1.85;1.38;;;;;;;;;;5023889;28;20424;-79
2021/07/14 08:17:14;;;;;;;2.40;1.30;;;;;;;;;;5024909;28;20117;-79
2021/07/14 08:19:40;;;;;;;2.90;1.40;;;;;;;;;;5032908;28;20017;-79
2021/07/14 08:22:06;;;;;;;1.27;1.13;;;;;;;;;;5038322;28;20457;-79
2021/07/14 08:24:33;;;;;;;2.00;1.55;;;;;;;;;;5038389;28;20025;-80
2021/07/14 08:26:59;;;;;;;3.83;1.23;;;;;;;;;;5039011;28;20083;-79
2021/07/14 08:29:25;;;;;;;5.07;1.65;;;;;;;;;;5025481;28;20025;-81
2021/07/14 08:31:54;;;;;;;1.20;1.10;;;;;;;;;;5024293;28;20076;-80
2021/07/14 08:34:20;;;;;;;4.22;1.73;;;;;;;;;;5021572;28;20018;-79
2021/07/14 08:36:46;;;;;;;3.25;1.20;;;;;;;;;;5019337;28;20029;-79
2021/07/14 08:39:13;;;;;;;1.30;1.20;;;;;;;;;;5018399;28;20549;-79
2021/07/14 08:41:41;;;;;;;1.67;1.45;;;;;;;;;;5020375;28;20030;-79
2021/07/14 08:44:08;;;;;;;1.20;1.10;;;;;;;;;;5023261;28;20110;-78
2021/07/14 08:46:36;;;;;;;1.40;1.30;;;;;;;;;;5039707;28;20033;-79
2021/07/14 08:49:05;;;;;;;1.27;1.20;;;;;;;;;;5042588;28;20034;-80
2021/07/14 08:51:34;;;;;;;2.53;1.20;;;;;;;;;;5040666;28;20030;-80
2021/07/14 08:54:00;;;;;;;3.72;1.88;;;;;;;;;;5040972;28;20049;-79
2021/07/14 08:56:27;;;;;;;1.58;1.38;;;;;;;;;;5039370;28;20064;-79
2021/07/14 08:58:53;;;;;;;1.60;1.42;;;;;;;;;;5031607;28;20026;-80
2021/07/14 09:01:19;;;;;;;2.22;1.90;;;;;;;;;;5019426;28;20119;-80
2021/07/14 09:03:45;;;;;;;2.10;1.90;;;;;;;;;;5021649;28;20025;-80
2021/07/14 09:06:11;;;;;;;1.60;1.50;;;;;;;;;;5020927;28;20038;-80
2021/07/14 09:08:38;;;;;;;3.33;1.60;;;;;;;;;;5021925;28;20044;-80
2021/07/14 09:11:05;;;;;;;2.03;1.80;;;;;;;;;;5021403;28;20118;-80
2021/07/14 09:13:33;;;;;;;1.90;1.80;;;;;;;;;;5021406;28;20542;-79
2021/07/14 09:15:59;;;;;;;1.60;1.50;;;;;;;;;;5020981;28;20382;-79
2021/07/14 09:18:28;;;;;;;1.23;1.02;;;;;;;;;;5035399;28;20028;-79
2021/07/14 09:20:54;;;;;;;4.72;1.98;;;;;;;;;;5031451;28;20034;-83
2021/07/14 09:23:23;;;;;;;1.77;1.52;;;;;;;;;;5027033;28;20406;-83
2021/07/14 09:25:49;;;;;;;1.90;1.60;;;;;;;;;;5025188;28;20022;-83
2021/07/14 09:28:17;;;;;;;2.13;1.55;;;;;;;;;;5024082;28;20041;-83
2021/07/14 09:30:44;;;;;;;1.60;1.20;;;;;;;;;;5022606;28;20081;-83
2021/07/14 09:33:11;;;;;;;3.25;1.27;;;;;;;;;;5023584;28;20029;-83
2021/07/14 09:35:37;;;;;;;1.92;1.75;;;;;;;;;;5022997;28;20451;-83
2021/07/14 09:38:11;;;;;;;2.22;1.17;;;;;;;;;;5024426;28;20045;-82
2021/07/14 09:40:39;;;;;;;1.70;1.40;;;;;;;;;;5025288;28;20034;-83
2021/07/14 09:43:09;;;;;;;2.00;1.75;;;;;;;;;;5025796;28;20458;-82
2021/07/14 09:45:48;;;;;;;3.92;1.90;;;;;;;;;;5027488;28;20026;-82
2021/07/14 09:48:22;;;;;;;2.88;0.95;;;;;;;;;;5041298;28;20107;-82
2021/07/14 09:50:52;;;;;;;1.23;1.13;;;;;;;;;;5035431;28;20085;-84
2021/07/14 09:53:20;;;;;;;2.10;1.40;;;;;;;;;;5023643;28;20430;-84
2021/07/14 09:55:48;;;;;;;2.35;1.17;;;;;;;;;;5025541;28;20022;-83
2021/07/14 09:58:25;;;;;;;1.75;1.27;;;;;;;;;;5028522;28;20574;-83
2021/07/14 10:00:52;;;;;;;1.17;1.10;;;;;;;;;;5027815;28;20451;-84
2021/07/14 10:03:31;;;;;;;1.42;1.33;;;;;;;;;;5025932;28;20458;-83
2021/07/14 10:06:05;;;;;;;1.70;1.42;;;;;;;;;;5016717;23;20062;-80
2021/07/14 10:08:31;;;;;;;1.95;1.30;;;;;;;;;;5010673;28;20081;-81
2021/07/14 10:11:27;;;;;;;1.55;1.40;;;;;;;;;;5008995;28;20031;-80
2021/07/14 10:14:00;;;;;;;1.63;1.48;;;;;;;;;;5006195;28;20070;-81
2021/07/14 10:16:27;;;;;;;2.25;1.75;;;;;;;;;;5014551;28;20010;-80
2021/07/14 10:19:00;;;;;;;1.35;1.10;;;;;;;;;;5014907;28;20467;-81
2021/07/14 10:21:27;;;;;;;1.05;1.05;;;;;;;;;;5010670;28;20096;-80
2021/07/14 10:23:54;;;;;;;1.58;1.20;;;;;;;;;;5010011;28;20050;-80
2021/07/14 10:26:20;;;;;;;1.55;1.20;;;;;;;;;;5009691;28;20090;-81
2021/07/14 10:28:48;;;;;;;2.75;1.60;;;;;;;;;;5009849;28;20046;-79
2021/07/14 10:31:15;;;;;;;1.23;1.10;;;;;;;;;;5008023;28;20026;-80
2021/07/14 10:33:42;;;;;;;1.73;1.17;;;;;;;;;;5007732;28;20471;-82
2021/07/14 10:36:10;;;;;;;1.33;1.20;;;;;;;;;;5008228;28;20033;-81
2021/07/14 10:38:37;;;;;;;1.58;1.40;;;;;;;;;;5011830;28;20030;-80
2021/07/14 10:41:06;;;;;;;1.83;1.20;;;;;;;;;;4997362;28;20022;-81
2021/07/14 10:43:32;;;;;;;1.73;1.20;;;;;;;;;;5009826;28;20022;-81
2021/07/14 10:46:00;;;;;;;1.27;1.05;;;;;;;;;;5026495;28;20097;-81
2021/07/14 10:48:27;;;;;;;1.27;1.17;;;;;;;;;;5005757;28;20026;-81
2021/07/14 10:50:54;;;;;;;1.50;1.40;;;;;;;;;;5009376;28;20026;-79
2021/07/14 10:53:21;;;;;;;2.08;1.23;;;;;;;;;;5010457;28;20023;-81
2021/07/14 10:55:48;;;;;;;1.50;1.10;;;;;;;;;;5024291;28;20042;-80
2021/07/14 10:58:18;;;;;;;1.40;1.30;;;;;;;;;;5022031;28;20506;-80
2021/07/14 11:00:48;;;;;;;2.42;1.30;;;;;;;;;;5015561;28;20030;-80
2021/07/14 11:03:33;;;;;;;2.10;1.48;;;;;;;;;;5001293;28;20034;-81
2021/07/14 11:06:06;;;;;;;3.15;1.20;;;;;;;;;;5008780;28;20356;-79
2021/07/14 11:08:50;;;;;;;4.60;1.38;;;;;;;;;;5018435;28;20093;-80
2021/07/14 11:11:18;;;;;;;3.97;1.73;;;;;;;;;;4995558;28;20046;-79
2021/07/14 11:13:45;;;;;;;1.55;1.20;;;;;;;;;;4993476;28;20023;-79
2021/07/14 11:16:30;;;;;;;1.90;1.42;;;;;;;;;;5010257;28;20070;-81
2021/07/14 11:18:57;;;;;;;1.45;1.35;;;;;;;;;;4993146;28;20399;-80
2021/07/14 11:21:42;;;;;;;1.92;1.52;;;;;;;;;;5016574;28;20105;-81
2021/07/14 11:24:08;;;;;;;2.25;1.13;;;;;;;;;;5007479;28;20026;-80
2021/07/14 11:26:34;;;;;;;3.22;1.15;;;;;;;;;;5013891;28;20098;-80
2021/07/14 11:29:13;;;;;;;3.90;1.83;;;;;;;;;;5015717;28;20034;-81
2021/07/14 11:31:41;;;;;;;2.17;1.40;;;;;;;;;;5021196;28;20062;-80
2021/07/14 11:34:26;;;;;;;2.00;1.40;;;;;;;;;;5013656;28;20030;-80
2021/07/14 11:36:52;;;;;;;6.22;1.95;;;;;;;;;;5023032;28;20030;-80
2021/07/14 11:39:28;;;;;;;3.55;1.50;;;;;;;;;;5025596;28;20054;-79
2021/07/14 11:42:15;;;;;;;1.83;1.73;;;;;;;;;;5010133;28;20082;-80
2021/07/14 11:44:41;;;;;;;1.38;1.27;;;;;;;;;;5008958;28;20106;-80
2021/07/14 11:47:31;;;;;;;1.10;1.00;;;;;;;;;;4995766;28;20037;-80
2021/07/14 11:49:57;;;;;;;1.23;1.13;;;;;;;;;;5009964;28;20026;-80
2021/07/14 11:52:42;;;;;;;1.52;1.30;;;;;;;;;;4992573;28;20048;-80
2021/07/14 11:55:23;;;;;;;1.20;1.10;;;;;;;;;;4989062;28;20027;-79
2021/07/14 11:57:53;;;;;;;1.30;1.20;;;;;;;;;;4992471;28;20031;-80
2021/07/14 12:00:35;;;;;;;1.10;1.10;;;;;;;;;;4993774;28;20031;-79
2021/07/14 12:03:02;;;;;;;1.40;1.30;;;;;;;;;;5013585;28;20049;-79
2021/07/14 12:05:32;;;;;;;2.90;1.42;;;;;;;;;;4993614;28;20101;-82
2021/07/14 12:08:12;;;;;;;3.53;1.77;;;;;;;;;;5008561;28;20090;-80
2021/07/14 12:10:39;;;;;;;2.53;1.90;;;;;;;;;;5005500;28;20030;-80
2021/07/14 12:13:06;;;;;;;1.98;1.65;;;;;;;;;;5009104;28;20057;-79
2021/07/14 12:15:44;;;;;;;3.15;2.20;;;;;;;;;;4993201;28;20034;-80
2021/07/14 12:18:12;;;;;;;4.82;1.75;;;;;;;;;;5009236;28;20020;-81
2021/07/14 12:20:38;;;;;;;3.00;1.75;;;;;;;;;;5028054;28;20090;-79
2021/07/14 12:23:14;;;;;;;2.55;1.70;;;;;;;;;;5009840;28;20022;-79
2021/07/14 12:25:40;;;;;;;5.00;1.77;;;;;;;;;;5026819;28;20026;-80
2021/07/14 12:28:10;;;;;;;2.70;2.47;;;;;;;;;;5028574;28;20049;-82
2021/07/14 12:30:40;;;;;;;3.50;1.98;;;;;;;;;;5011742;28;20026;-82
2021/07/14 12:33:08;;;;;;;2.60;2.40;;;;;;;;;;5008288;28;20042;-83
2021/07/14 12:35:36;;;;;;;2.85;2.13;;;;;;;;;;5010034;28;20038;-83
2021/07/14 12:38:06;;;;;;;2.80;1.90;;;;;;;;;;5008240;28;20037;-81
2021/07/14 12:40:38;;;;;;;2.88;1.67;;;;;;;;;;5008152;28;20023;-84
2021/07/14 12:43:04;;;;;;;;;;;;;;;;;;5009231;28;20039;-83
2021/07/14 12:45:32;;;;;;;2.47;1.42;;;;;;;;;;5009036;28;19906;-83
2021/07/14 12:48:03;;;;;;;1.33;1.20;;;;;;;;;;5018664;28;20026;-81
2021/07/14 12:50:29;;;;;;;1.30;1.30;;;;;;;;;;5023831;28;20022;-83
2021/07/14 12:52:56;;;;;;;2.15;1.83;;;;;;;;;;5011296;28;20430;-81
2021/07/14 12:55:23;;;;;;;2.85;1.42;;;;;;;;;;5006495;28;20030;-82
2021/07/14 12:57:50;;;;;;;2.08;1.80;;;;;;;;;;5008874;28;20022;-83
2021/07/14 13:00:17;;;;;;;2.53;1.58;;;;;;;;;;5009154;28;20018;-80
2021/07/14 13:02:44;;;;;;;2.88;1.65;;;;;;;;;;5008240;28;20032;-82
2021/07/14 13:05:16;;;;;;;1.70;1.50;;;;;;;;;;5007030;28;20105;-82
2021/07/14 13:07:45;;;;;;;2.17;1.70;;;;;;;;;;5008255;28;20447;-83
2021/07/14 13:10:11;;;;;;;1.52;1.40;;;;;;;;;;5008112;28;20280;-81
2021/07/14 13:12:38;;;;;;;1.67;1.58;;;;;;;;;;5008623;28;20030;-81
2021/07/14 13:15:04;;;;;;;2.58;1.73;;;;;;;;;;5007992;28;20107;-82
2021/07/14 13:17:34;;;;;;;1.88;1.77;;;;;;;;;;4993582;28;20176;-81
2021/07/14 13:20:11;;;;;;;1.50;1.42;;;;;;;;;;5007596;28;20034;-80
2021/07/14 13:22:38;;;;;;;2.30;1.70;;;;;;;;;;5007578;28;20173;-80
2021/07/14 13:25:09;;;;;;;2.42;1.85;;;;;;;;;;5005119;28;20045;-81
2021/07/14 13:27:38;;;;;;;2.20;1.95;;;;;;;;;;5008759;28;20035;-82
2021/07/14 13:30:23;;;;;;;5.45;2.50;;;;;;;;;;5004531;28;20014;-80
2021/07/14 13:33:06;;;;;;;3.30;1.98;;;;;;;;;;5004794;28;20037;-80
2021/07/14 13:35:34;;;;;;;7.40;2.45;;;;;;;;;;5005232;28;20022;-79
2021/07/14 13:38:00;;;;;;;2.95;1.77;;;;;;;;;;5010595;28;20018;-80
2021/07/14 13:40:27;;;;;;;1.98;1.83;;;;;;;;;;5010043;28;20053;-80
2021/07/14 13:42:54;;;;;;;5.95;2.05;;;;;;;;;;5011635;28;20121;-79
2021/07/14 13:45:29;;;;;;;2.60;2.17;;;;;;;;;;5012617;28;20037;-80
2021/07/14 13:47:58;;;;;;;1.77;1.50;;;;;;;;;;5021292;28;20065;-80
2021/07/14 13:50:25;;;;;;;1.70;1.60;;;;;;;;;;5007663;28;20090;-82
2021/07/14 13:53:04;;;;;;;1.70;1.60;;;;;;;;;;5016078;28;20054;-80
2021/07/14 13:55:31;;;;;;;1.80;1.70;;;;;;;;;;5019709;28;20054;-81
2021/07/14 13:58:07;;;;;;;2.92;1.65;;;;;;;;;;5012517;28;20034;-78
2021/07/14 14:00:33;;;;;;;1.65;1.55;;;;;;;;;;5000815;28;20034;-80
2021/07/14 14:03:00;;;;;;;1.90;1.80;;;;;;;;;;4997959;28;20057;-81
2021/07/14 14:05:26;;;;;;;3.60;2.42;;;;;;;;;;4993862;28;20061;-81
2021/07/14 14:07:52;;;;;;;2.90;1.63;;;;;;;;;;5001843;28;20149;-81
2021/07/14 14:10:23;;;;;;;1.40;1.30;;;;;;;;;;4991745;28;20085;-81
2021/07/14 14:12:51;;;;;;;3.05;1.50;;;;;;;;;;5001416;28;20022;-80
2021/07/14 14:15:17;;;;;;;2.58;1.77;;;;;;;;;;5006552;28;20018;-80
2021/07/14 14:17:47;;;;;;;2.38;2.03;;;;;;;;;;5016674;28;20031;-81
2021/07/14 14:20:14;;;;;;;1.58;1.48;;;;;;;;;;5019916;28;20041;-80
2021/07/14 14:22:40;;;;;;;1.63;1.52;;;;;;;;;;5010134;28;20027;-82
2021/07/14 14:25:10;;;;;;;2.60;1.23;;;;;;;;;;5011050;28;20134;-81
2021/07/14 14:27:51;;;;;;;2.53;1.52;;;;;;;;;;4992317;28;20045;-81
2021/07/14 14:30:37;;;;;;;1.95;1.67;;;;;;;;;;4992034;28;20054;-81
2021/07/14 14:33:15;;;;;;;2.05;1.67;;;;;;;;;;5009359;28;20411;-81
2021/07/14 14:35:42;;;;;;;1.70;1.60;;;;;;;;;;5009046;28;20105;-82
2021/07/14 14:38:09;;;;;;;1.45;1.35;;;;;;;;;;5011237;28;20479;-82
2021/07/14 14:40:37;;;;;;;1.33;1.33;;;;;;;;;;5009785;28;20069;-82
2021/07/14 14:43:03;;;;;;;2.70;1.50;;;;;;;;;;4993213;28;20041;-82
2021/07/14 14:45:29;;;;;;;3.47;1.90;;;;;;;;;;5010279;28;20042;-81
2021/07/14 14:47:57;;;;;;;1.92;1.33;;;;;;;;;;5025680;28;20053;-81
2021/07/14 14:50:23;;;;;;;4.38;1.60;;;;;;;;;;5009449;28;20015;-81
2021/07/14 14:52:49;;;;;;;3.17;1.80;;;;;;;;;;5010581;28;20045;-81
2021/07/14 14:55:17;;;;;;;3.03;1.50;;;;;;;;;;5009232;28;20041;-81
2021/07/14 14:57:46;;;;;;;1.50;1.40;;;;;;;;;;5009534;28;20029;-82
2021/07/14 15:00:14;;;;;;;2.72;1.42;;;;;;;;;;4993009;28;20061;-82